sensor_id;sensor_type;location;lat;lon;timestamp;temperature;humidity
33508;DHT22;25568;37.410;-122.096;2022-12-05T00:00:09;19.00;83.30
33508;DHT22;25568;37.410;-122.096;2022-12-05T00:02:40;19.00;83.30
33508;DHT22;25568;37.410;-122.096;2022-12-05T00:05:10;19.00;83.20
33508;DHT22;25568;37.410;-122.096;2022-12-05T00:07:39;19.00;83.10
33508;DHT22;25568;37.410;-122.096;2022-12-05T00:10:08;19.00;83.10
33508;DHT22;25568;37.410;-122.096;2022-12-05T00:12:40;19.00;83.20
33508;DHT22;25568;37.410;-122.096;2022-12-05T00:15:09;19.00;83.10
33508;DHT22;25568;37.410;-122.096;2022-12-05T00:17:40;19.00;83.10
33508;DHT22;25568;37.410;-122.096;2022-12-05T00:20:13;19.00;83.00
33508;DHT22;25568;37.410;-122.096;2022-12-05T00:22:41;19.00;83.00
33508;DHT22;25568;37.410;-122.096;2022-12-05T00:25:10;19.00;82.90
33508;DHT22;25568;37.410;-122.096;2022-12-05T00:27:39;19.00;83.00
33508;DHT22;25568;37.410;-122.096;2022-12-05T00:30:11;19.00;83.00
33508;DHT22;25568;37.410;-122.096;2022-12-05T00:32:42;19.00;82.70
33508;DHT22;25568;37.410;-122.096;2022-12-05T00:35:10;19.00;82.50
33508;DHT22;25568;37.410;-122.096;2022-12-05T00:37:39;19.00;82.40
33508;DHT22;25568;37.410;-122.096;2022-12-05T00:40:09;19.00;82.40
33508;DHT22;25568;37.410;-122.096;2022-12-05T00:42:41;19.00;82.30
33508;DHT22;25568;37.410;-122.096;2022-12-05T00:45:10;19.00;82.30
33508;DHT22;25568;37.410;-122.096;2022-12-05T00:47:44;19.00;82.30
33508;DHT22;25568;37.410;-122.096;2022-12-05T00:50:12;19.00;82.30
33508;DHT22;25568;37.410;-122.096;2022-12-05T00:52:41;19.00;82.30
33508;DHT22;25568;37.410;-122.096;2022-12-05T00:55:14;19.00;82.30
33508;DHT22;25568;37.410;-122.096;2022-12-05T00:57:43;19.00;82.30
33508;DHT22;25568;37.410;-122.096;2022-12-05T01:00:12;19.00;82.30
33508;DHT22;25568;37.410;-122.096;2022-12-05T01:02:43;19.00;82.30
33508;DHT22;25568;37.410;-122.096;2022-12-05T01:05:11;19.00;82.30
33508;DHT22;25568;37.410;-122.096;2022-12-05T01:07:40;19.00;82.40
33508;DHT22;25568;37.410;-122.096;2022-12-05T01:10:09;19.00;82.40
33508;DHT22;25568;37.410;-122.096;2022-12-05T01:12:38;19.00;82.50
33508;DHT22;25568;37.410;-122.096;2022-12-05T01:15:08;18.90;82.40
33508;DHT22;25568;37.410;-122.096;2022-12-05T01:17:37;19.00;82.50
33508;DHT22;25568;37.410;-122.096;2022-12-05T01:20:08;19.00;82.50
33508;DHT22;25568;37.410;-122.096;2022-12-05T01:22:38;18.90;81.70
33508;DHT22;25568;37.410;-122.096;2022-12-05T01:25:07;19.00;82.40
33508;DHT22;25568;37.410;-122.096;2022-12-05T01:27:36;19.00;82.50
33508;DHT22;25568;37.410;-122.096;2022-12-05T01:30:06;19.00;82.50
33508;DHT22;25568;37.410;-122.096;2022-12-05T01:32:35;19.00;82.50
33508;DHT22;25568;37.410;-122.096;2022-12-05T01:35:07;19.00;82.50
33508;DHT22;25568;37.410;-122.096;2022-12-05T01:37:39;19.00;82.50
33508;DHT22;25568;37.410;-122.096;2022-12-05T01:40:08;19.00;82.50
33508;DHT22;25568;37.410;-122.096;2022-12-05T01:42:39;18.90;82.50
33508;DHT22;25568;37.410;-122.096;2022-12-05T01:45:13;18.90;82.30
33508;DHT22;25568;37.410;-122.096;2022-12-05T01:47:43;18.90;82.20
33508;DHT22;25568;37.410;-122.096;2022-12-05T01:50:18;18.90;82.10
33508;DHT22;25568;37.410;-122.096;2022-12-05T01:52:47;18.90;81.90
33508;DHT22;25568;37.410;-122.096;2022-12-05T01:55:17;18.90;81.80
33508;DHT22;25568;37.410;-122.096;2022-12-05T01:57:49;18.90;81.60
33508;DHT22;25568;37.410;-122.096;2022-12-05T02:00:19;18.90;82.20
33508;DHT22;25568;37.410;-122.096;2022-12-05T02:02:51;18.80;81.20
33508;DHT22;25568;37.410;-122.096;2022-12-05T02:05:26;18.80;81.10
33508;DHT22;25568;37.410;-122.096;2022-12-05T02:07:57;18.80;81.00
33508;DHT22;25568;37.410;-122.096;2022-12-05T02:10:34;18.80;80.90
33508;DHT22;25568;37.410;-122.096;2022-12-05T02:13:14;18.80;80.80
33508;DHT22;25568;37.410;-122.096;2022-12-05T02:15:49;18.80;80.70
33508;DHT22;25568;37.410;-122.096;2022-12-05T02:18:35;18.80;80.60
33508;DHT22;25568;37.410;-122.096;2022-12-05T02:24:33;18.80;80.40
33508;DHT22;25568;37.410;-122.096;2022-12-05T02:27:19;18.80;80.50
33508;DHT22;25568;37.410;-122.096;2022-12-05T02:30:03;18.80;80.70
33508;DHT22;25568;37.410;-122.096;2022-12-05T02:32:42;18.80;80.70
33508;DHT22;25568;37.410;-122.096;2022-12-05T02:35:24;18.80;80.70
33508;DHT22;25568;37.410;-122.096;2022-12-05T02:38:01;18.80;80.80
33508;DHT22;25568;37.410;-122.096;2022-12-05T02:40:41;18.80;81.00
33508;DHT22;25568;37.410;-122.096;2022-12-05T02:43:16;18.80;81.90
33508;DHT22;25568;37.410;-122.096;2022-12-05T02:45:52;18.80;84.00
33508;DHT22;25568;37.410;-122.096;2022-12-05T03:41:40;18.70;86.00
33508;DHT22;25568;37.410;-122.096;2022-12-05T03:44:15;18.70;86.60
33508;DHT22;25568;37.410;-122.096;2022-12-05T03:46:54;18.70;86.60
33508;DHT22;25568;37.410;-122.096;2022-12-05T03:49:28;18.60;86.40
33508;DHT22;25568;37.410;-122.096;2022-12-05T03:52:06;18.70;86.40
33508;DHT22;25568;37.410;-122.096;2022-12-05T03:54:39;18.60;86.30
33508;DHT22;25568;37.410;-122.096;2022-12-05T03:57:16;18.60;86.30
33508;DHT22;25568;37.410;-122.096;2022-12-05T03:59:49;18.60;86.30
33508;DHT22;25568;37.410;-122.096;2022-12-05T04:02:23;18.60;86.20
33508;DHT22;25568;37.410;-122.096;2022-12-05T04:04:57;18.60;86.00
33508;DHT22;25568;37.410;-122.096;2022-12-05T04:07:28;18.60;85.90
33508;DHT22;25568;37.410;-122.096;2022-12-05T04:10:01;18.60;86.00
33508;DHT22;25568;37.410;-122.096;2022-12-05T04:12:32;18.60;85.80
33508;DHT22;25568;37.410;-122.096;2022-12-05T04:15:04;18.60;85.60
33508;DHT22;25568;37.410;-122.096;2022-12-05T04:17:42;18.60;85.60
33508;DHT22;25568;37.410;-122.096;2022-12-05T04:20:15;18.60;85.40
33508;DHT22;25568;37.410;-122.096;2022-12-05T04:23:02;18.60;85.40
33508;DHT22;25568;37.410;-122.096;2022-12-05T04:25:36;18.50;85.30
33508;DHT22;25568;37.410;-122.096;2022-12-05T04:28:14;18.60;85.30
33508;DHT22;25568;37.410;-122.096;2022-12-05T04:30:49;18.50;85.30
33508;DHT22;25568;37.410;-122.096;2022-12-05T04:33:30;18.60;85.30
33508;DHT22;25568;37.410;-122.096;2022-12-05T04:36:04;18.50;85.10
33508;DHT22;25568;37.410;-122.096;2022-12-05T04:38:40;18.50;85.40
33508;DHT22;25568;37.410;-122.096;2022-12-05T04:41:17;18.50;85.20
33508;DHT22;25568;37.410;-122.096;2022-12-05T04:43:49;18.50;85.10
33508;DHT22;25568;37.410;-122.096;2022-12-05T04:46:24;18.50;85.20
33508;DHT22;25568;37.410;-122.096;2022-12-05T04:48:57;18.50;85.20
33508;DHT22;25568;37.410;-122.096;2022-12-05T04:51:28;18.50;85.30
33508;DHT22;25568;37.410;-122.096;2022-12-05T04:54:04;18.50;85.20
33508;DHT22;25568;37.410;-122.096;2022-12-05T04:56:38;18.50;85.10
33508;DHT22;25568;37.410;-122.096;2022-12-05T04:59:08;18.50;85.10
33508;DHT22;25568;37.410;-122.096;2022-12-05T05:01:40;18.50;85.10
33508;DHT22;25568;37.410;-122.096;2022-12-05T05:04:13;18.50;85.00
33508;DHT22;25568;37.410;-122.096;2022-12-05T05:06:44;18.50;85.00
33508;DHT22;25568;37.410;-122.096;2022-12-05T05:09:13;18.50;85.10
33508;DHT22;25568;37.410;-122.096;2022-12-05T05:11:42;18.50;85.10
33508;DHT22;25568;37.410;-122.096;2022-12-05T05:14:11;18.50;85.00
33508;DHT22;25568;37.410;-122.096;2022-12-05T05:16:40;18.50;85.00
33508;DHT22;25568;37.410;-122.096;2022-12-05T05:19:12;18.50;85.00
33508;DHT22;25568;37.410;-122.096;2022-12-05T05:21:44;18.50;84.90
33508;DHT22;25568;37.410;-122.096;2022-12-05T05:24:14;18.40;84.90
33508;DHT22;25568;37.410;-122.096;2022-12-05T05:26:44;18.40;84.80
33508;DHT22;25568;37.410;-122.096;2022-12-05T05:29:13;18.50;84.90
33508;DHT22;25568;37.410;-122.096;2022-12-05T05:31:42;18.50;85.00
33508;DHT22;25568;37.410;-122.096;2022-12-05T05:34:13;18.50;85.00
33508;DHT22;25568;37.410;-122.096;2022-12-05T05:36:42;18.40;84.90
33508;DHT22;25568;37.410;-122.096;2022-12-05T05:39:13;18.40;85.00
33508;DHT22;25568;37.410;-122.096;2022-12-05T05:41:42;18.40;85.00
33508;DHT22;25568;37.410;-122.096;2022-12-05T05:44:11;18.50;85.10
33508;DHT22;25568;37.410;-122.096;2022-12-05T05:46:40;18.40;85.00
33508;DHT22;25568;37.410;-122.096;2022-12-05T05:49:09;18.40;85.00
33508;DHT22;25568;37.410;-122.096;2022-12-05T05:51:40;18.40;85.00
33508;DHT22;25568;37.410;-122.096;2022-12-05T05:54:09;18.40;85.00
33508;DHT22;25568;37.410;-122.096;2022-12-05T05:56:41;18.40;84.90
33508;DHT22;25568;37.410;-122.096;2022-12-05T05:59:10;18.40;85.00
33508;DHT22;25568;37.410;-122.096;2022-12-05T06:01:39;18.40;85.00
33508;DHT22;25568;37.410;-122.096;2022-12-05T06:04:08;18.40;84.90
33508;DHT22;25568;37.410;-122.096;2022-12-05T06:06:36;18.30;84.80
33508;DHT22;25568;37.410;-122.096;2022-12-05T06:09:08;18.40;85.60
33508;DHT22;25568;37.410;-122.096;2022-12-05T06:11:36;18.40;84.80
33508;DHT22;25568;37.410;-122.096;2022-12-05T06:14:05;18.40;84.80
33508;DHT22;25568;37.410;-122.096;2022-12-05T06:16:34;18.40;84.80
33508;DHT22;25568;37.410;-122.096;2022-12-05T06:19:03;18.40;84.90
33508;DHT22;25568;37.410;-122.096;2022-12-05T06:21:31;18.30;84.80
33508;DHT22;25568;37.410;-122.096;2022-12-05T06:24:00;18.30;84.80
33508;DHT22;25568;37.410;-122.096;2022-12-05T06:26:31;18.30;84.80
33508;DHT22;25568;37.410;-122.096;2022-12-05T06:29:00;18.30;84.70
33508;DHT22;25568;37.410;-122.096;2022-12-05T06:31:29;18.30;84.80
33508;DHT22;25568;37.410;-122.096;2022-12-05T06:34:00;18.30;84.80
33508;DHT22;25568;37.410;-122.096;2022-12-05T06:36:29;18.30;84.80
33508;DHT22;25568;37.410;-122.096;2022-12-05T06:38:59;18.30;84.80
33508;DHT22;25568;37.410;-122.096;2022-12-05T06:41:30;18.30;84.70
33508;DHT22;25568;37.410;-122.096;2022-12-05T06:43:59;18.30;84.70
33508;DHT22;25568;37.410;-122.096;2022-12-05T06:46:28;18.30;84.70
33508;DHT22;25568;37.410;-122.096;2022-12-05T06:48:58;18.30;84.80
33508;DHT22;25568;37.410;-122.096;2022-12-05T06:51:27;18.30;84.80
33508;DHT22;25568;37.410;-122.096;2022-12-05T06:53:56;18.30;84.70
33508;DHT22;25568;37.410;-122.096;2022-12-05T06:56:25;18.20;84.60
33508;DHT22;25568;37.410;-122.096;2022-12-05T06:58:56;18.20;84.70
33508;DHT22;25568;37.410;-122.096;2022-12-05T07:01:25;18.20;84.70
33508;DHT22;25568;37.410;-122.096;2022-12-05T07:04:10;18.20;84.60
33508;DHT22;25568;37.410;-122.096;2022-12-05T07:06:39;18.20;84.60
33508;DHT22;25568;37.410;-122.096;2022-12-05T07:09:09;18.20;84.60
33508;DHT22;25568;37.410;-122.096;2022-12-05T07:11:38;18.20;84.60
33508;DHT22;25568;37.410;-122.096;2022-12-05T07:14:08;18.20;84.60
33508;DHT22;25568;37.410;-122.096;2022-12-05T07:16:37;18.10;84.60
33508;DHT22;25568;37.410;-122.096;2022-12-05T07:19:10;18.20;84.60
33508;DHT22;25568;37.410;-122.096;2022-12-05T07:21:39;18.10;84.40
33508;DHT22;25568;37.410;-122.096;2022-12-05T07:24:08;18.10;84.60
33508;DHT22;25568;37.410;-122.096;2022-12-05T07:26:37;18.00;84.60
33508;DHT22;25568;37.410;-122.096;2022-12-05T07:29:10;18.00;84.60
33508;DHT22;25568;37.410;-122.096;2022-12-05T07:31:38;18.00;84.70
33508;DHT22;25568;37.410;-122.096;2022-12-05T07:34:11;18.00;84.80
33508;DHT22;25568;37.410;-122.096;2022-12-05T07:36:40;18.00;84.70
33508;DHT22;25568;37.410;-122.096;2022-12-05T07:39:09;17.90;84.60
33508;DHT22;25568;37.410;-122.096;2022-12-05T07:41:38;17.90;84.60
33508;DHT22;25568;37.410;-122.096;2022-12-05T07:44:10;17.90;84.60
33508;DHT22;25568;37.410;-122.096;2022-12-05T07:46:39;17.90;84.60
33508;DHT22;25568;37.410;-122.096;2022-12-05T07:49:08;17.90;84.60
33508;DHT22;25568;37.410;-122.096;2022-12-05T07:51:37;17.90;84.60
33508;DHT22;25568;37.410;-122.096;2022-12-05T07:54:07;17.90;84.60
33508;DHT22;25568;37.410;-122.096;2022-12-05T07:56:35;17.80;84.60
33508;DHT22;25568;37.410;-122.096;2022-12-05T07:59:04;17.80;84.50
33508;DHT22;25568;37.410;-122.096;2022-12-05T08:01:35;17.80;84.50
33508;DHT22;25568;37.410;-122.096;2022-12-05T08:04:04;17.80;84.60
33508;DHT22;25568;37.410;-122.096;2022-12-05T08:06:33;17.80;84.60
33508;DHT22;25568;37.410;-122.096;2022-12-05T08:09:03;17.80;84.50
33508;DHT22;25568;37.410;-122.096;2022-12-05T08:11:32;17.80;84.50
33508;DHT22;25568;37.410;-122.096;2022-12-05T08:14:04;17.70;84.30
33508;DHT22;25568;37.410;-122.096;2022-12-05T08:16:35;17.70;84.40
33508;DHT22;25568;37.410;-122.096;2022-12-05T08:19:09;17.70;84.30
33508;DHT22;25568;37.410;-122.096;2022-12-05T08:21:38;17.70;84.30
33508;DHT22;25568;37.410;-122.096;2022-12-05T08:24:08;17.70;84.40
33508;DHT22;25568;37.410;-122.096;2022-12-05T08:26:38;17.70;84.50
33508;DHT22;25568;37.410;-122.096;2022-12-05T08:29:09;17.70;84.50
33508;DHT22;25568;37.410;-122.096;2022-12-05T08:31:42;17.70;84.40
33508;DHT22;25568;37.410;-122.096;2022-12-05T08:34:13;17.60;84.30
33508;DHT22;25568;37.410;-122.096;2022-12-05T08:36:46;17.60;84.30
33508;DHT22;25568;37.410;-122.096;2022-12-05T08:39:16;17.60;84.30
33508;DHT22;25568;37.410;-122.096;2022-12-05T08:41:46;17.60;84.20
33508;DHT22;25568;37.410;-122.096;2022-12-05T08:44:15;17.60;84.10
33508;DHT22;25568;37.410;-122.096;2022-12-05T08:46:47;17.70;84.10
33508;DHT22;25568;37.410;-122.096;2022-12-05T08:49:17;17.70;84.00
33508;DHT22;25568;37.410;-122.096;2022-12-05T08:51:46;17.70;83.80
33508;DHT22;25568;37.410;-122.096;2022-12-05T08:54:15;17.70;83.60
33508;DHT22;25568;37.410;-122.096;2022-12-05T08:56:44;17.80;83.60
33508;DHT22;25568;37.410;-122.096;2022-12-05T08:59:13;17.80;84.30
33508;DHT22;25568;37.410;-122.096;2022-12-05T09:01:49;17.80;83.50
33508;DHT22;25568;37.410;-122.096;2022-12-05T09:04:18;17.80;83.60
33508;DHT22;25568;37.410;-122.096;2022-12-05T09:06:50;17.90;83.60
33508;DHT22;25568;37.410;-122.096;2022-12-05T09:09:19;17.90;83.60
33508;DHT22;25568;37.410;-122.096;2022-12-05T09:11:48;17.90;83.70
33508;DHT22;25568;37.410;-122.096;2022-12-05T09:14:17;17.90;83.70
33508;DHT22;25568;37.410;-122.096;2022-12-05T09:16:47;18.00;83.70
33508;DHT22;25568;37.410;-122.096;2022-12-05T09:19:18;18.00;83.80
33508;DHT22;25568;37.410;-122.096;2022-12-05T09:21:49;18.00;83.80
33508;DHT22;25568;37.410;-122.096;2022-12-05T09:24:18;18.00;83.80
33508;DHT22;25568;37.410;-122.096;2022-12-05T09:26:46;18.10;84.00
33508;DHT22;25568;37.410;-122.096;2022-12-05T09:29:15;18.10;83.90
33508;DHT22;25568;37.410;-122.096;2022-12-05T09:31:47;18.00;83.90
33508;DHT22;25568;37.410;-122.096;2022-12-05T09:34:21;18.10;84.00
33508;DHT22;25568;37.410;-122.096;2022-12-05T09:36:51;18.10;83.80
33508;DHT22;25568;37.410;-122.096;2022-12-05T09:39:20;18.10;84.00
33508;DHT22;25568;37.410;-122.096;2022-12-05T09:42:21;18.10;84.00
33508;DHT22;25568;37.410;-122.096;2022-12-05T09:45:04;18.10;84.00
33508;DHT22;25568;37.410;-122.096;2022-12-05T09:47:49;18.10;84.10
33508;DHT22;25568;37.410;-122.096;2022-12-05T09:50:21;18.10;84.30
33508;DHT22;25568;37.410;-122.096;2022-12-05T09:53:01;18.10;84.10
33508;DHT22;25568;37.410;-122.096;2022-12-05T09:55:45;18.10;84.10
33508;DHT22;25568;37.410;-122.096;2022-12-05T09:58:28;18.10;84.20
33508;DHT22;25568;37.410;-122.096;2022-12-05T10:01:02;18.10;84.30
33508;DHT22;25568;37.410;-122.096;2022-12-05T10:03:39;18.10;84.30
33508;DHT22;25568;37.410;-122.096;2022-12-05T10:06:16;18.10;84.40
33508;DHT22;25568;37.410;-122.096;2022-12-05T10:09:00;18.10;84.50
33508;DHT22;25568;37.410;-122.096;2022-12-05T10:11:38;18.00;84.50
33508;DHT22;25568;37.410;-122.096;2022-12-05T10:14:14;18.00;84.60
33508;DHT22;25568;37.410;-122.096;2022-12-05T10:16:48;18.00;84.70
33508;DHT22;25568;37.410;-122.096;2022-12-05T10:19:24;18.00;84.80
33508;DHT22;25568;37.410;-122.096;2022-12-05T10:21:58;18.00;84.80
33508;DHT22;25568;37.410;-122.096;2022-12-05T10:24:32;18.00;84.80
33508;DHT22;25568;37.410;-122.096;2022-12-05T10:27:09;18.00;84.80
33508;DHT22;25568;37.410;-122.096;2022-12-05T10:29:44;17.90;84.80
33508;DHT22;25568;37.410;-122.096;2022-12-05T10:32:17;17.90;84.80
33508;DHT22;25568;37.410;-122.096;2022-12-05T10:34:50;17.90;84.90
33508;DHT22;25568;37.410;-122.096;2022-12-05T10:37:22;17.90;84.90
33508;DHT22;25568;37.410;-122.096;2022-12-05T10:39:51;17.90;85.00
33508;DHT22;25568;37.410;-122.096;2022-12-05T10:42:24;17.90;85.10
33508;DHT22;25568;37.410;-122.096;2022-12-05T10:44:57;17.90;85.30
33508;DHT22;25568;37.410;-122.096;2022-12-05T10:47:30;17.90;85.30
33508;DHT22;25568;37.410;-122.096;2022-12-05T10:50:05;17.90;85.30
33508;DHT22;25568;37.410;-122.096;2022-12-05T10:52:35;17.80;85.30
33508;DHT22;25568;37.410;-122.096;2022-12-05T10:55:05;17.80;85.20
33508;DHT22;25568;37.410;-122.096;2022-12-05T10:57:34;17.80;85.40
33508;DHT22;25568;37.410;-122.096;2022-12-05T11:00:20;17.80;85.30
33508;DHT22;25568;37.410;-122.096;2022-12-05T11:02:50;17.80;85.30
33508;DHT22;25568;37.410;-122.096;2022-12-05T11:05:30;17.80;85.30
33508;DHT22;25568;37.410;-122.096;2022-12-05T11:07:59;17.70;85.30
33508;DHT22;25568;37.410;-122.096;2022-12-05T11:10:32;17.70;85.30
33508;DHT22;25568;37.410;-122.096;2022-12-05T11:13:14;17.70;85.30
33508;DHT22;25568;37.410;-122.096;2022-12-05T11:15:45;17.70;85.30
33508;DHT22;25568;37.410;-122.096;2022-12-05T11:18:21;17.70;85.30
33508;DHT22;25568;37.410;-122.096;2022-12-05T11:20:56;17.70;85.30
33508;DHT22;25568;37.410;-122.096;2022-12-05T11:23:31;17.70;85.30
33508;DHT22;25568;37.410;-122.096;2022-12-05T11:26:01;17.70;85.30
33508;DHT22;25568;37.410;-122.096;2022-12-05T11:28:35;17.60;85.30
33508;DHT22;25568;37.410;-122.096;2022-12-05T11:31:08;17.60;85.30
33508;DHT22;25568;37.410;-122.096;2022-12-05T11:34:03;17.60;85.30
33508;DHT22;25568;37.410;-122.096;2022-12-05T11:36:41;17.60;85.50
33508;DHT22;25568;37.410;-122.096;2022-12-05T11:39:12;17.60;85.60
33508;DHT22;25568;37.410;-122.096;2022-12-05T11:44:47;17.60;85.60
33508;DHT22;25568;37.410;-122.096;2022-12-05T11:47:27;17.60;85.60
33508;DHT22;25568;37.410;-122.096;2022-12-05T11:50:12;17.60;85.60
33508;DHT22;25568;37.410;-122.096;2022-12-05T11:52:54;17.60;85.60
33508;DHT22;25568;37.410;-122.096;2022-12-05T11:55:31;17.60;85.60
33508;DHT22;25568;37.410;-122.096;2022-12-05T11:58:33;17.50;85.70
33508;DHT22;25568;37.410;-122.096;2022-12-05T12:01:13;17.50;85.60
33508;DHT22;25568;37.410;-122.096;2022-12-05T12:06:57;17.50;85.50
33508;DHT22;25568;37.410;-122.096;2022-12-05T12:09:41;17.50;85.60
33508;DHT22;25568;37.410;-122.096;2022-12-05T12:12:22;17.50;85.60
33508;DHT22;25568;37.410;-122.096;2022-12-05T12:15:02;17.50;85.60
33508;DHT22;25568;37.410;-122.096;2022-12-05T12:17:40;17.50;85.60
33508;DHT22;25568;37.410;-122.096;2022-12-05T12:20:26;17.50;85.60
33508;DHT22;25568;37.410;-122.096;2022-12-05T12:23:18;17.50;85.90
33508;DHT22;25568;37.410;-122.096;2022-12-05T12:26:07;17.50;85.90
33508;DHT22;25568;37.410;-122.096;2022-12-05T12:28:44;17.50;86.00
33508;DHT22;25568;37.410;-122.096;2022-12-05T12:31:30;17.40;86.00
33508;DHT22;25568;37.410;-122.096;2022-12-05T12:34:10;17.40;86.10
33508;DHT22;25568;37.410;-122.096;2022-12-05T12:36:46;17.40;86.20
33508;DHT22;25568;37.410;-122.096;2022-12-05T12:39:35;17.40;87.10
33508;DHT22;25568;37.410;-122.096;2022-12-05T12:42:19;17.40;86.50
33508;DHT22;25568;37.410;-122.096;2022-12-05T12:45:05;17.50;86.60
33508;DHT22;25568;37.410;-122.096;2022-12-05T12:47:53;17.50;86.40
33508;DHT22;25568;37.410;-122.096;2022-12-05T12:50:27;17.60;86.40
33508;DHT22;25568;37.410;-122.096;2022-12-05T12:53:13;17.60;86.30
33508;DHT22;25568;37.410;-122.096;2022-12-05T12:55:54;17.60;86.40
33508;DHT22;25568;37.410;-122.096;2022-12-05T12:58:41;17.70;86.40
33508;DHT22;25568;37.410;-122.096;2022-12-05T13:01:19;17.70;86.40
33508;DHT22;25568;37.410;-122.096;2022-12-05T13:03:53;17.70;86.30
33508;DHT22;25568;37.410;-122.096;2022-12-05T13:06:30;17.70;86.30
33508;DHT22;25568;37.410;-122.096;2022-12-05T13:09:03;17.80;86.40
33508;DHT22;25568;37.410;-122.096;2022-12-05T13:11:37;17.80;86.40
33508;DHT22;25568;37.410;-122.096;2022-12-05T13:14:13;17.80;86.40
33508;DHT22;25568;37.410;-122.096;2022-12-05T13:16:45;17.90;86.30
33508;DHT22;25568;37.410;-122.096;2022-12-05T13:19:24;17.90;86.30
33508;DHT22;25568;37.410;-122.096;2022-12-05T13:21:56;17.90;86.10
33508;DHT22;25568;37.410;-122.096;2022-12-05T13:24:28;17.90;85.90
33508;DHT22;25568;37.410;-122.096;2022-12-05T13:26:59;17.90;86.00
33508;DHT22;25568;37.410;-122.096;2022-12-05T13:29:32;17.90;85.90
33508;DHT22;25568;37.410;-122.096;2022-12-05T13:32:03;18.00;86.00
33508;DHT22;25568;37.410;-122.096;2022-12-05T13:34:45;18.00;86.10
33508;DHT22;25568;37.410;-122.096;2022-12-05T13:37:20;18.00;86.10
33508;DHT22;25568;37.410;-122.096;2022-12-05T13:40:23;18.00;86.10
33508;DHT22;25568;37.410;-122.096;2022-12-05T13:43:10;18.00;86.10
33508;DHT22;25568;37.410;-122.096;2022-12-05T13:45:42;18.10;86.20
33508;DHT22;25568;37.410;-122.096;2022-12-05T13:48:21;18.00;86.10
33508;DHT22;25568;37.410;-122.096;2022-12-05T13:50:58;18.00;86.10
33508;DHT22;25568;37.410;-122.096;2022-12-05T13:53:34;18.00;86.00
33508;DHT22;25568;37.410;-122.096;2022-12-05T13:56:13;18.00;86.10
33508;DHT22;25568;37.410;-122.096;2022-12-05T13:58:51;18.00;85.90
33508;DHT22;25568;37.410;-122.096;2022-12-05T14:01:45;18.00;85.90
33508;DHT22;25568;37.410;-122.096;2022-12-05T14:04:45;18.00;85.90
33508;DHT22;25568;37.410;-122.096;2022-12-05T14:07:38;18.00;85.90
33508;DHT22;25568;37.410;-122.096;2022-12-05T14:10:09;18.00;85.90
33508;DHT22;25568;37.410;-122.096;2022-12-05T14:12:51;17.90;85.80
33508;DHT22;25568;37.410;-122.096;2022-12-05T14:15:30;17.90;86.00
33508;DHT22;25568;37.410;-122.096;2022-12-05T14:18:08;17.90;86.10
33508;DHT22;25568;37.410;-122.096;2022-12-05T14:20:48;17.90;86.10
33508;DHT22;25568;37.410;-122.096;2022-12-05T14:23:42;17.90;86.30
33508;DHT22;25568;37.410;-122.096;2022-12-05T14:26:28;17.80;86.30
33508;DHT22;25568;37.410;-122.096;2022-12-05T14:29:16;17.80;86.40
33508;DHT22;25568;37.410;-122.096;2022-12-05T14:32:02;17.80;86.40
33508;DHT22;25568;37.410;-122.096;2022-12-05T14:34:35;17.80;86.60
33508;DHT22;25568;37.410;-122.096;2022-12-05T14:39:53;17.80;86.90
33508;DHT22;25568;37.410;-122.096;2022-12-05T14:42:26;17.80;87.00
33508;DHT22;25568;37.410;-122.096;2022-12-05T14:44:58;17.80;87.20
33508;DHT22;25568;37.410;-122.096;2022-12-05T14:47:30;17.90;87.10
33508;DHT22;25568;37.410;-122.096;2022-12-05T14:50:30;17.80;87.10
33508;DHT22;25568;37.410;-122.096;2022-12-05T14:53:31;17.90;86.90
33508;DHT22;25568;37.410;-122.096;2022-12-05T14:56:13;17.90;86.90
33508;DHT22;25568;37.410;-122.096;2022-12-05T14:58:47;17.90;86.80
33508;DHT22;25568;37.410;-122.096;2022-12-05T15:01:20;17.90;86.90
33508;DHT22;25568;37.410;-122.096;2022-12-05T15:04:05;17.90;86.80
33508;DHT22;25568;37.410;-122.096;2022-12-05T15:06:48;17.90;86.60
33508;DHT22;25568;37.410;-122.096;2022-12-05T15:09:54;18.00;86.50
33508;DHT22;25568;37.410;-122.096;2022-12-05T15:12:26;18.00;86.10
33508;DHT22;25568;37.410;-122.096;2022-12-05T15:15:05;17.90;86.00
33508;DHT22;25568;37.410;-122.096;2022-12-05T15:17:43;17.90;85.80
33508;DHT22;25568;37.410;-122.096;2022-12-05T15:20:17;17.90;85.80
33508;DHT22;25568;37.410;-122.096;2022-12-05T15:22:52;17.90;85.80
33508;DHT22;25568;37.410;-122.096;2022-12-05T15:25:26;17.90;85.80
33508;DHT22;25568;37.410;-122.096;2022-12-05T15:28:02;18.00;85.90
33508;DHT22;25568;37.410;-122.096;2022-12-05T15:30:33;18.10;90.10
33508;DHT22;25568;37.410;-122.096;2022-12-05T15:33:05;18.20;90.60
33508;DHT22;25568;37.410;-122.096;2022-12-05T15:35:37;18.20;90.70
33508;DHT22;25568;37.410;-122.096;2022-12-05T15:38:17;18.10;90.50
33508;DHT22;25568;37.410;-122.096;2022-12-05T15:40:47;18.00;90.40
33508;DHT22;25568;37.410;-122.096;2022-12-05T15:43:27;18.00;90.50
33508;DHT22;25568;37.410;-122.096;2022-12-05T15:46:17;17.80;90.40
33508;DHT22;25568;37.410;-122.096;2022-12-05T15:48:49;17.90;90.50
33508;DHT22;25568;37.410;-122.096;2022-12-05T15:51:20;17.90;90.20
33508;DHT22;25568;37.410;-122.096;2022-12-05T15:53:53;18.00;90.20
33508;DHT22;25568;37.410;-122.096;2022-12-05T15:56:29;18.10;90.10
33508;DHT22;25568;37.410;-122.096;2022-12-05T15:59:02;18.10;90.10
33508;DHT22;25568;37.410;-122.096;2022-12-05T16:01:37;18.10;90.20
33508;DHT22;25568;37.410;-122.096;2022-12-05T16:04:14;18.10;90.20
33508;DHT22;25568;37.410;-122.096;2022-12-05T16:06:47;18.20;90.10
33508;DHT22;25568;37.410;-122.096;2022-12-05T16:09:21;18.20;90.30
33508;DHT22;25568;37.410;-122.096;2022-12-05T16:11:51;18.20;90.20
33508;DHT22;25568;37.410;-122.096;2022-12-05T16:14:22;18.20;90.30
33508;DHT22;25568;37.410;-122.096;2022-12-05T16:16:56;18.10;90.40
33508;DHT22;25568;37.410;-122.096;2022-12-05T16:19:27;18.10;90.50
33508;DHT22;25568;37.410;-122.096;2022-12-05T16:22:01;18.10;90.50
33508;DHT22;25568;37.410;-122.096;2022-12-05T16:24:39;18.10;90.60
33508;DHT22;25568;37.410;-122.096;2022-12-05T16:27:14;18.10;90.60
33508;DHT22;25568;37.410;-122.096;2022-12-05T16:29:44;18.10;90.60
33508;DHT22;25568;37.410;-122.096;2022-12-05T16:32:20;18.10;90.60
33508;DHT22;25568;37.410;-122.096;2022-12-05T16:34:51;18.10;90.70